Latest Weather Observations for Mount Crawford

IDS60901

Issued at 7:41 am CST Tuesday 31 May 2016 (issued every 10 minutes, with the page automatically refreshed every 10 minutes)

About weather observations | Map of Adelaide area stations | Latest observations for Adelaide area | Other Formats
Station Details ID: 023878 Name: MOUNT CRAWFORD AWS Lat: -34.73 Lon: 138.93 Height: 525.0 m
Data from the previous 72 hours. | See also: Recent months at Mount Crawford
Date/Time
CST
Tmp

°C
App
Tmp
°C
Dew
Point
°C
Rel
Hum
%
Delta-T

°C
Wind Press
QNH
hPa
Press
MSL
hPa
Rain
since
9 am
mm
Dir
 
Spd
km/h
Gust
km/h
Spd
kts
Gust
kts
31/07:30am 8.9 5.2 8.1 95 0.4 NE 17 22 9 12 1022.8 1022.6 3.0
31/07:00am 9.2 5.0 8.1 93 0.5 NE 20 28 11 15 1022.5 1022.3 3.0
31/06:30am 9.4 5.4 8.3 93 0.5 NE 19 24 10 13 1022.3 1022.0 3.0
31/06:00am 9.3 5.7 8.2 93 0.5 NE 17 24 9 13 1022.2 1021.9 3.0
31/05:30am 9.6 5.6 8.2 91 0.7 ENE 19 26 10 14 1021.9 1021.6 3.0
31/05:00am 9.9 5.8 7.8 87 1.0 ENE 19 24 10 13 1021.7 1021.4 3.0
31/04:30am 10.2 5.5 7.8 85 1.2 NE 22 28 12 15 1021.6 1021.3 3.0
31/04:00am 10.2 5.5 7.6 84 1.3 NE 22 28 12 15 1021.5 1021.2 3.0
31/03:30am 10.4 6.0 7.6 83 1.4 NE 20 28 11 15 1021.5 1021.2 3.0
31/03:00am 10.2 4.7 7.6 84 1.3 NE 26 35 14 19 1021.5 1021.2 3.0
31/02:30am 10.2 5.1 7.8 85 1.2 NE 24 37 13 20 1021.5 1021.2 3.0
31/02:00am 10.4 4.1 7.6 83 1.4 NE 30 35 16 19 1021.4 1021.1 3.0
31/01:30am 10.5 5.0 7.7 83 1.4 NE 26 35 14 19 1021.4 1021.1 3.0
31/01:00am 10.7 5.2 7.6 81 1.5 NE 26 39 14 21 1021.3 1021.0 3.0
31/12:30am 10.6 4.7 7.7 82 1.4 NE 28 41 15 22 1021.3 1021.0 3.0
31/12:00am 10.7 5.2 7.6 81 1.5 NE 26 35 14 19 1021.5 1021.2 3.0
 
Date/Time
CST
Tmp

°C
App
Tmp
°C
Dew
Point
°C
Rel
Hum
%
Delta-T

°C
Wind Press
QNH
hPa
Press
MSL
hPa
Rain
since
9 am
mm
Dir
 
Spd
km/h
Gust
km/h
Spd
kts
Gust
kts
30/11:30pm 10.8 5.3 7.5 80 1.6 NE 26 37 14 20 1021.5 1021.2 3.0
30/11:00pm 10.9 5.4 7.6 80 1.6 NE 26 35 14 19 1021.5 1021.2 3.0
30/10:30pm 11.2 5.3 7.7 79 1.7 NE 28 37 15 20 1021.5 1021.2 3.0
30/10:00pm 11.1 4.9 7.8 80 1.6 NE 30 46 16 25 1021.5 1021.2 3.0
30/09:30pm 11.1 5.4 8.5 84 1.3 NE 28 39 15 21 1021.5 1021.2 3.0
30/09:00pm 10.5 4.9 8.9 90 0.8 NE 28 39 15 21 1021.6 1021.3 3.0
30/08:30pm 10.9 4.8 8.1 83 1.4 NE 30 43 16 23 1021.4 1021.1 2.8
30/08:00pm 11.4 4.8 7.7 78 1.8 NE 32 43 17 23 1021.2 1020.9 2.8
30/07:30pm 11.1 5.3 8.1 82 1.5 NE 28 37 15 20 1020.8 1020.6 2.8
30/07:00pm 10.9 4.8 8.1 83 1.4 NE 30 43 16 23 1020.6 1020.3 2.8
30/06:30pm 10.7 5.0 8.3 85 1.2 NE 28 39 15 21 1020.4 1020.1 2.8
30/06:00pm 10.6 4.9 8.4 86 1.1 NE 28 39 15 21 1020.1 1019.8 2.8
30/05:30pm 10.4 4.7 8.5 88 1.0 NE 28 37 15 20 1019.7 1019.4 2.8
30/05:00pm 10.4 5.2 8.7 89 0.9 NE 26 33 14 18 1019.4 1019.1 2.8
30/04:30pm 10.3 5.1 8.9 91 0.7 NE 26 35 14 19 1019.0 1018.7 2.8
30/04:00pm 10.3 5.2 9.1 92 0.6 NE 26 37 14 20 1018.7 1018.4 2.8
30/03:30pm 10.4 6.1 9.3 93 0.6 NE 22 32 12 17 1018.7 1018.4 2.8
30/03:00pm 10.5 6.8 9.6 94 0.5 NE 19 24 10 13 1018.6 1018.3 2.8
30/02:30pm 10.8 6.9 9.6 92 0.6 NE 20 28 11 15 1018.5 1018.2 2.8
30/02:00pm 11.2 7.9 11.0 99 0.1 NE 19 28 10 15 1018.4 1018.1 2.8
30/01:30pm 10.3 6.6 10.1 99 0.1 NE 20 26 11 14 1018.6 1018.3 2.8
30/01:00pm 10.0 5.8 9.9 99 0.1 NE 22 32 12 17 1018.8 1018.5 2.8
30/12:30pm 9.5 6.1 9.2 98 0.2 NNE 17 22 9 12 1019.4 1019.1 2.4
30/12:00pm 10.0 5.6 8.9 93 0.6 NNE 22 33 12 18 1019.5 1019.2 1.4
30/11:30am 9.7 5.9 8.9 95 0.4 NNE 19 24 10 13 1019.8 1019.5 1.4
30/11:00am 9.2 4.3 8.4 95 0.4 NE 24 30 13 16 1019.9 1019.6 0.8
30/10:30am 8.9 5.0 8.8 99 0.1 NE 19 24 10 13 1020.1 1019.8 0.6
30/10:00am 8.9 5.0 8.8 99 0.1 NE 19 24 10 13 1020.2 1019.9 0.4
30/09:30am 8.8 4.6 8.4 97 0.2 NE 20 28 11 15 1020.2 1019.9 0.2
30/09:00am 8.5 4.8 8.1 97 0.2 ENE 17 24 9 13 1020.0 1019.7 0.6
30/08:30am 8.1 5.1 7.7 97 0.2 ENE 13 17 7 9 1019.8 1019.5 0.6
30/08:00am 8.1 4.6 7.2 94 0.4 NE 15 19 8 10 1019.6 1019.3 0.2
30/07:30am 8.5 4.0 6.3 86 1.0 NE 19 26 10 14 1019.3 1019.0 0.0
30/07:00am 8.4 3.7 6.2 86 1.0 ENE 20 30 11 16 1018.6 1018.3 0.0
30/06:30am 8.1 4.0 6.1 87 0.9 NE 17 24 9 13 1018.6 1018.3 0.0
30/06:00am 8.0 3.8 5.8 86 1.0 NE 17 22 9 12 1018.2 1017.9 0.0
30/05:30am 8.2 4.0 5.8 85 1.1 ENE 17 22 9 12 1018.1 1017.8 0.0
30/05:00am 8.9 5.5 6.0 82 1.4 ENE 13 19 7 10 1018.0 1017.7 0.0
30/04:30am 9.1 5.3 6.0 81 1.5 NE 15 19 8 10 1018.0 1017.7 0.0
30/04:00am 9.5 5.0 6.0 79 1.7 NNE 19 28 10 15 1017.9 1017.6 0.0
30/03:30am 9.5 5.0 6.0 79 1.7 NNE 19 28 10 15 1017.9 1017.6 0.0
30/03:00am 9.5 5.0 6.0 79 1.7 NNE 19 28 10 15 1017.9 1017.6 0.0
30/02:30am 8.9 4.8 6.2 83 1.3 NE 17 19 9 10 1017.8 1017.5 0.0
30/02:00am 8.5 3.8 6.0 84 1.2 NE 20 28 11 15 1017.9 1017.6 0.0
30/01:30am 7.8 3.2 5.8 87 0.9 NE 19 22 10 12 1018.0 1017.7 0.0
30/01:00am 8.1 3.4 5.9 86 1.0 NE 20 24 11 13 1018.2 1017.9 0.0
30/12:30am 8.2 3.1 5.8 85 1.1 NE 22 28 12 15 1018.2 1017.9 0.0
30/12:00am 8.4 2.1 5.7 83 1.3 NE 28 37 15 20 1018.3 1018.0 0.0
 
Date/Time
CST
Tmp

°C
App
Tmp
°C
Dew
Point
°C
Rel
Hum
%
Delta-T

°C
Wind Press
QNH
hPa
Press
MSL
hPa
Rain
since
9 am
mm
Dir
 
Spd
km/h
Gust
km/h
Spd
kts
Gust
kts
29/11:30pm 8.3 1.9 5.4 82 1.3 NE 28 37 15 20 1018.1 1017.8 0.0
29/11:00pm 8.4 1.7 5.5 82 1.3 NE 30 37 16 20 1018.3 1018.0 0.0
29/10:30pm 8.4 2.1 5.5 82 1.3 NE 28 37 15 20 1018.4 1018.1 0.0
29/10:00pm 9.0 3.1 5.7 80 1.5 NE 26 33 14 18 1018.5 1018.2 0.0
29/09:30pm 9.1 2.9 6.0 81 1.5 NE 28 41 15 22 1018.6 1018.3 0.0
29/09:00pm 8.9 3.0 6.0 82 1.4 NE 26 35 14 19 1018.6 1018.3 0.0
29/08:30pm 9.2 3.5 6.6 84 1.2 NE 26 33 14 18 1018.7 1018.4 0.0
29/08:00pm 9.2 4.3 7.0 86 1.1 NE 22 30 12 16 1018.8 1018.5 0.0
29/07:30pm 8.8 4.3 6.9 88 0.9 NE 20 28 11 15 1018.5 1018.2 0.0
29/07:00pm 8.5 4.2 6.8 89 0.8 NE 19 26 10 14 1018.5 1018.2 0.0
29/06:30pm 8.7 4.4 7.0 89 0.8 NE 19 24 10 13 1018.2 1017.9 0.0
29/06:00pm 8.9 4.6 6.9 87 1.0 ENE 19 26 10 14 1017.7 1017.4 0.0
29/05:30pm 9.4 5.1 7.0 85 1.2 ENE 19 24 10 13 1017.6 1017.3 0.0
29/05:00pm 9.8 5.5 7.1 83 1.3 NE 19 24 10 13 1017.4 1017.0 0.0
29/04:30pm 9.8 5.5 7.2 84 1.3 NE 19 24 10 13 1017.3 1016.9 0.0
29/04:00pm 9.8 5.0 7.2 84 1.3 NE 22 28 12 15 1017.3 1016.9 0.0
29/03:30pm 10.4 6.5 7.3 81 1.5 NE 17 20 9 11 1017.4 1017.0 0.0
29/03:00pm 10.6 6.7 6.9 78 1.8 NE 17 22 9 12 1017.3 1016.9 0.0
29/02:30pm 10.7 6.4 7.0 78 1.8 NNE 19 22 10 12 1017.5 1017.2 0.0
29/02:00pm 10.9 6.3 6.6 75 2.1 NNE 20 24 11 13 1017.5 1017.2 0.0
29/01:30pm 10.7 6.2 5.9 72 2.3 NNE 19 28 10 15 1017.6 1017.3 0.0
29/01:00pm 10.7 5.9 5.5 70 2.5 NNE 20 26 11 14 1018.0 1017.7 0.0
29/12:30pm 10.8 6.1 6.2 73 2.2 NNE 20 26 11 14 1018.4 1018.1 0.0
29/12:00pm 10.7 6.4 5.3 69 2.5 NNE 17 22 9 12 1018.6 1018.3 0.0
29/11:30am 10.6 6.0 5.4 70 2.4 NNE 19 30 10 16 1018.7 1018.4 0.0
29/11:00am 10.6 5.9 6.2 74 2.1 NE 20 32 11 17 1018.7 1018.4 0.0
29/10:30am 9.9 5.2 6.1 77 1.8 NE 20 26 11 14 1019.2 1018.9 0.0
29/10:00am 9.1 4.3 5.8 80 1.6 NE 20 26 11 14 1019.2 1018.9 0.0
29/09:30am 8.3 3.7 5.6 83 1.3 NE 19 24 10 13 1019.2 1018.9 0.0
29/09:00am 7.5 3.1 5.0 84 1.1 NE 17 22 9 12 1019.0 1018.7 0.0
29/08:30am 6.7 1.9 4.5 86 1.0 NE 19 24 10 13 1018.9 1018.6 0.0
29/08:00am 6.5 1.6 4.3 86 1.0 NE 19 28 10 15 1018.6 1018.3 0.0
29/07:30am 5.4 1.0 4.7 95 0.3 ENE 17 22 9 12 1018.5 1018.2 0.0
29/07:00am 5.7 0.8 3.9 88 0.8 ENE 19 24 10 13 1018.3 1018.0 0.0
29/06:30am 6.5 1.3 3.7 82 1.2 NE 20 28 11 15 1018.2 1017.9 0.0
29/06:00am 6.5 1.4 4.0 84 1.1 NE 20 28 11 15 1018.0 1017.7 0.0
29/05:30am 6.4 1.0 4.4 87 0.9 ENE 22 28 12 15 1017.7 1017.4 0.0
29/05:00am 6.4 1.4 4.6 88 0.8 ENE 20 24 11 13 1017.6 1017.3 0.0
29/04:30am 6.2 1.1 4.2 87 0.9 ENE 20 26 11 14 1017.6 1017.3 0.0
29/04:00am 6.2 1.4 4.4 88 0.8 ENE 19 24 10 13 1017.4 1017.0 0.0
29/03:30am 6.9 2.3 3.9 81 1.3 ENE 17 24 9 13 1017.6 1017.3 0.0
29/03:00am 6.8 2.7 4.5 85 1.0 E 15 20 8 11 1017.6 1017.3 0.0
29/02:30am 7.1 2.7 4.6 84 1.1 ENE 17 22 9 12 1017.8 1017.5 0.0
29/02:00am 6.9 2.6 5.2 89 0.8 E 17 20 9 11 1017.9 1017.6 0.0
29/01:30am 6.5 2.2 5.3 92 0.5 E 17 19 9 10 1017.7 1017.4 0.0
29/01:00am 7.1 3.1 4.9 86 1.0 E 15 20 8 11 1017.7 1017.4 0.0
29/12:30am 7.5 2.7 4.6 82 1.3 ENE 19 22 10 12 1017.8 1017.5 0.0
29/12:00am 7.5 3.2 5.1 85 1.1 E 17 22 9 12 1018.0 1017.7 0.0
 
Date/Time
CST
Tmp

°C
App
Tmp
°C
Dew
Point
°C
Rel
Hum
%
Delta-T

°C
Wind Press
QNH
hPa
Press
MSL
hPa
Rain
since
9 am
mm
Dir
 
Spd
km/h
Gust
km/h
Spd
kts
Gust
kts
28/11:30pm 7.8 3.4 4.9 82 1.3 ENE 17 24 9 13 1018.3 1018.0 0.0
28/11:00pm 7.5 3.7 6.0 90 0.7 E 15 20 8 11 1018.4 1018.1 0.0
28/10:30pm 7.7 4.4 6.2 90 0.7 E 13 17 7 9 1018.5 1018.2 0.0
28/10:00pm 7.8 4.1 6.1 89 0.8 E 15 20 8 11 1018.3 1018.0 0.0
28/09:30pm 8.0 3.9 6.1 88 0.9 E 17 20 9 11 1018.3 1018.0 0.0
28/09:00pm 8.1 4.5 6.6 90 0.7 E 15 19 8 10 1018.4 1018.1 0.0
28/08:30pm 8.2 4.5 6.5 89 0.8 ESE 15 17 8 9 1018.5 1018.2 0.0
28/08:00pm 8.3 4.7 6.8 90 0.7 ESE 15 19 8 10 1018.4 1018.1 0.0
28/07:30pm 8.4 4.8 6.9 90 0.7 SE 15 19 8 10 1018.2 1017.9 0.0
28/07:00pm 8.4 4.8 6.9 90 0.7 SE 15 20 8 11 1017.9 1017.6 0.0
28/06:30pm 8.8 5.3 7.1 89 0.8 SE 15 19 8 10 1017.7 1017.4 0.0
28/06:00pm 8.9 5.0 7.0 88 0.9 SE 17 24 9 13 1017.3 1016.9 0.0
28/05:30pm 9.1 4.8 6.9 86 1.1 ESE 19 22 10 12 1016.9 1016.6 0.0
28/05:00pm 9.3 6.4 6.7 84 1.3 ESE 11 15 6 8 1017.1 1016.7 0.0
28/04:30pm 9.8 6.6 6.7 81 1.5 ESE 13 19 7 10 1016.7 1016.4 0.0
28/04:00pm 10.0 6.7 6.5 79 1.7 ESE 13 20 7 11 1016.5 1016.2 0.0
28/03:30pm 11.1 7.1 6.8 75 2.1 SE 17 24 9 13 1016.3 1016.0 0.0
28/03:00pm 10.3 6.6 6.1 75 2.0 SSE 15 19 8 10 1016.1 1015.8 0.0
28/02:30pm 10.7 6.3 6.6 76 2.0 SSE 19 26 10 14 1015.9 1015.6 0.0
28/02:00pm 11.2 6.7 6.3 72 2.4 S 19 28 10 15 1015.7 1015.3 0.0
28/01:30pm 11.3 7.3 6.8 74 2.2 SSE 17 24 9 13 1015.8 1015.4 0.0
28/01:00pm 11.5 7.6 7.2 75 2.1 SE 17 26 9 14 1015.8 1015.4 0.0
28/12:30pm 10.8 6.2 6.4 74 2.1 ESE 20 32 11 17 1015.8 1015.4 0.0
28/12:00pm 11.0 7.1 7.1 77 1.9 ESE 17 24 9 13 1016.0 1015.7 0.0
28/11:30am 10.9 6.6 7.2 78 1.8 ESE 19 28 10 15 1016.4 1016.1 0.0
28/11:00am 10.0 5.2 5.8 75 2.0 SE 20 32 11 17 1016.2 1015.9 0.0
28/10:30am 9.9 4.9 6.4 79 1.7 SE 22 35 12 19 1015.9 1015.6 0.0
28/10:00am 9.4 4.0 6.3 81 1.5 ESE 24 41 13 22 1015.7 1015.3 0.0
28/09:30am 9.1 4.5 6.7 85 1.2 ESE 20 30 11 16 1015.2 1014.8 0.0
28/09:00am 8.4 3.6 7.2 92 0.6 SE 22 35 12 19 1014.5 1014.2 13.8
28/08:30am 7.7 2.2 7.7 100 0.0 SE 26 39 14 21 1014.0 1013.6 13.8
28/08:00am 7.4 3.0 7.4 100 0.0 SE 20 32 11 17 1013.7 1013.3 13.8

Latest Capital City Observations: Canberra | Sydney | Melbourne | Brisbane | Adelaide | Perth | Hobart | Darwin

Other Formats:

Comma delimited format used in spreadsheet applications
http://www.bom.gov.au/fwo/IDS60901/IDS60901.94678.axf

JavaScript Object Notation format (JSON) in row-major order
http://www.bom.gov.au/fwo/IDS60901/IDS60901.94678.json